SAS725 EKCH-LEPA
Flight info
| Callsign | SAS725 |
|---|---|
| Flight time | N/A |
| Altitude | 38000 |
| Route | NEXEN T503 GIMRU DCT MICOS DCT WRB DCT XAROL DCT BOMBI DCT GIGET DCT ABUKA DCT KRH DCT NATOR DCT LUTIX DCT BENOT DCT NEMOS DCT GEVEA DCT INCUS DCT BALSI DCT RETNO DCT TUPOX DCT MTG DCT DIVKO DCT VATIR N852 VERSO L129 LUNIK |
| Aircraft | A20N/M-SDE2E3FGHIRWXY/LB1 |
Departure
| Time | 2026-05-08 08:51 |
|---|---|
| Airport | Copenhagen Kastrup Airport (EKCH) |
Arrival
| Time | N/A |
|---|---|
| Airport | Palma de Mallorca Airport (LEPA) |
| Time | Latitude | Longitude | Altitude | Speed | Heading |
|---|---|---|---|---|---|
| 2026-05-08 08:34 | 55.62710 | 12.64458 | 20 ft | 0 kts | 101° |
| 2026-05-08 08:41 | 55.62711 | 12.64448 | 20 ft | 4 kts | 101° |
| 2026-05-08 08:41 | 55.62715 | 12.64401 | 20 ft | 4 kts | 91° |
| 2026-05-08 08:41 | 55.62711 | 12.64357 | 21 ft | 4 kts | 52° |
| 2026-05-08 08:41 | 55.62694 | 12.64336 | 24 ft | 4 kts | 23° |
| 2026-05-08 08:42 | 55.62669 | 12.64317 | 22 ft | 4 kts | 22° |
| 2026-05-08 08:42 | 55.62644 | 12.64299 | 21 ft | 4 kts | 24° |
| 2026-05-08 08:42 | 55.62621 | 12.64278 | 22 ft | 3 kts | 32° |
| 2026-05-08 08:42 | 55.62602 | 12.64257 | 23 ft | 4 kts | 33° |
| 2026-05-08 08:43 | 55.62580 | 12.64231 | 21 ft | 4 kts | 33° |
| 2026-05-08 08:43 | 55.62558 | 12.64207 | 22 ft | 4 kts | 34° |
| 2026-05-08 08:43 | 55.62543 | 12.64176 | 22 ft | 4 kts | 85° |
| 2026-05-08 08:43 | 55.62548 | 12.64132 | 23 ft | 4 kts | 120° |
| 2026-05-08 08:44 | 55.62561 | 12.64094 | 22 ft | 4 kts | 123° |
| 2026-05-08 08:44 | 55.62573 | 12.64063 | 22 ft | 0 kts | 122° |
| 2026-05-08 08:47 | 55.62546 | 12.64137 | 23 ft | 13 kts | 123° |
| 2026-05-08 08:47 | 55.62495 | 12.64275 | 22 ft | 13 kts | 125° |
| 2026-05-08 08:47 | 55.62439 | 12.64399 | 20 ft | 13 kts | 129° |
| 2026-05-08 08:48 | 55.62369 | 12.64441 | 20 ft | 11 kts | 198° |
| 2026-05-08 08:48 | 55.62278 | 12.64396 | 19 ft | 17 kts | 195° |
| 2026-05-08 08:48 | 55.62149 | 12.64304 | 20 ft | 22 kts | 206° |
| 2026-05-08 08:48 | 55.61997 | 12.64175 | 20 ft | 25 kts | 205° |
| 2026-05-08 08:49 | 55.61835 | 12.64068 | 20 ft | 24 kts | 180° |
| 2026-05-08 08:49 | 55.61701 | 12.64085 | 22 ft | 16 kts | 176° |
| 2026-05-08 08:49 | 55.61607 | 12.64046 | 26 ft | 14 kts | 220° |
| 2026-05-08 08:49 | 55.61532 | 12.63933 | 23 ft | 15 kts | 220° |
| 2026-05-08 08:50 | 55.61458 | 12.63815 | 22 ft | 14 kts | 223° |
| 2026-05-08 08:50 | 55.61366 | 12.63673 | 22 ft | 34 kts | 221° |
| 2026-05-08 08:50 | 55.61018 | 12.63132 | 24 ft | 98 kts | 221° |
| 2026-05-08 08:50 | 55.60342 | 12.62088 | 22 ft | 156 kts | 221° |
| 2026-05-08 08:51 | 55.59448 | 12.60671 | 224 ft | 179 kts | 220° |
| 2026-05-08 08:51 | 55.58551 | 12.59244 | 1019 ft | 169 kts | 218° |
| 2026-05-08 08:51 | 55.57623 | 12.57835 | 1519 ft | 186 kts | 216° |
| 2026-05-08 08:51 | 55.56544 | 12.56329 | 1764 ft | 212 kts | 212° |
| 2026-05-08 08:52 | 55.55232 | 12.54704 | 2053 ft | 244 kts | 211° |
| 2026-05-08 08:52 | 55.53804 | 12.52963 | 2771 ft | 255 kts | 212° |
| 2026-05-08 08:52 | 55.52319 | 12.51149 | 3567 ft | 264 kts | 212° |
| 2026-05-08 08:52 | 55.50791 | 12.49279 | 4370 ft | 270 kts | 212° |
| 2026-05-08 08:53 | 55.49239 | 12.47378 | 5172 ft | 275 kts | 212° |
| 2026-05-08 08:53 | 55.48193 | 12.46098 | 5714 ft | 277 kts | 212° |
| 2026-05-08 08:53 | 55.46610 | 12.44160 | 6640 ft | 277 kts | 212° |
| 2026-05-08 08:53 | 55.44498 | 12.41579 | 7770 ft | 279 kts | 212° |
| 2026-05-08 08:54 | 55.43420 | 12.40264 | 8351 ft | 281 kts | 212° |
| 2026-05-08 08:54 | 55.41279 | 12.37655 | 9507 ft | 284 kts | 212° |
| 2026-05-08 08:54 | 55.40177 | 12.36313 | 10117 ft | 286 kts | 211° |
| 2026-05-08 08:54 | 55.38518 | 12.34296 | 10741 ft | 298 kts | 212° |
| 2026-05-08 08:55 | 55.36752 | 12.32156 | 11069 ft | 320 kts | 212° |
| 2026-05-08 08:55 | 55.34859 | 12.29862 | 11446 ft | 339 kts | 212° |
| 2026-05-08 08:55 | 55.32891 | 12.27475 | 12138 ft | 347 kts | 213° |
| 2026-05-08 08:55 | 55.30892 | 12.25051 | 12975 ft | 351 kts | 213° |
| 2026-05-08 08:56 | 55.28879 | 12.22613 | 13823 ft | 354 kts | 213° |
| 2026-05-08 08:56 | 55.26845 | 12.20152 | 14661 ft | 355 kts | 212° |
| 2026-05-08 08:56 | 55.24796 | 12.17680 | 15392 ft | 360 kts | 212° |
| 2026-05-08 08:56 | 55.22717 | 12.15174 | 16079 ft | 365 kts | 213° |
| 2026-05-08 08:57 | 55.20643 | 12.12666 | 16769 ft | 368 kts | 214° |
| 2026-05-08 08:57 | 55.18528 | 12.10001 | 17465 ft | 372 kts | 215° |
| 2026-05-08 08:57 | 55.16426 | 12.07311 | 18154 ft | 376 kts | 216° |
| 2026-05-08 08:57 | 55.14303 | 12.04588 | 18773 ft | 381 kts | 216° |
| 2026-05-08 08:58 | 55.12183 | 12.01875 | 19331 ft | 384 kts | 216° |
| 2026-05-08 08:58 | 55.09991 | 11.99074 | 19936 ft | 388 kts | 216° |
| 2026-05-08 08:58 | 55.07826 | 11.96314 | 20514 ft | 391 kts | 215° |
| 2026-05-08 08:58 | 55.05590 | 11.93469 | 21087 ft | 395 kts | 216° |
| 2026-05-08 08:59 | 55.03381 | 11.90661 | 21648 ft | 399 kts | 216° |
| 2026-05-08 08:59 | 55.01128 | 11.87801 | 22212 ft | 402 kts | 215° |
| 2026-05-08 08:59 | 54.98856 | 11.84921 | 22742 ft | 406 kts | 215° |
| 2026-05-08 08:59 | 54.96556 | 11.82010 | 23251 ft | 409 kts | 216° |
| 2026-05-08 09:00 | 54.94241 | 11.79085 | 23797 ft | 412 kts | 216° |
| 2026-05-08 09:00 | 54.91917 | 11.76152 | 24276 ft | 413 kts | 216° |
| 2026-05-08 09:00 | 54.89580 | 11.73206 | 24686 ft | 417 kts | 216° |
| 2026-05-08 09:00 | 54.87222 | 11.70241 | 25088 ft | 419 kts | 216° |
| 2026-05-08 09:01 | 54.84851 | 11.67262 | 25516 ft | 422 kts | 215° |
| 2026-05-08 09:01 | 54.82472 | 11.64278 | 25917 ft | 424 kts | 216° |
| 2026-05-08 09:01 | 54.80071 | 11.61269 | 26294 ft | 427 kts | 215° |
| 2026-05-08 09:01 | 54.77648 | 11.58238 | 26701 ft | 429 kts | 214° |
| 2026-05-08 09:02 | 54.75226 | 11.55213 | 27102 ft | 431 kts | 215° |
| 2026-05-08 09:02 | 54.72782 | 11.52165 | 27461 ft | 434 kts | 215° |
| 2026-05-08 09:02 | 54.70324 | 11.49105 | 27876 ft | 435 kts | 215° |
| 2026-05-08 09:02 | 54.67867 | 11.46052 | 28382 ft | 435 kts | 216° |
| 2026-05-08 09:03 | 54.65402 | 11.42992 | 28708 ft | 438 kts | 215° |
| 2026-05-08 09:03 | 54.62923 | 11.39920 | 28994 ft | 441 kts | 215° |
| 2026-05-08 09:03 | 54.60426 | 11.36829 | 29389 ft | 442 kts | 215° |
| 2026-05-08 09:03 | 54.57923 | 11.33735 | 29850 ft | 441 kts | 215° |
| 2026-05-08 09:04 | 54.55433 | 11.30666 | 30370 ft | 439 kts | 214° |
| 2026-05-08 09:04 | 54.52946 | 11.27621 | 30775 ft | 437 kts | 214° |
| 2026-05-08 09:04 | 54.50473 | 11.24608 | 31157 ft | 436 kts | 214° |
| 2026-05-08 09:04 | 54.48020 | 11.21629 | 31440 ft | 437 kts | 215° |
| 2026-05-08 09:05 | 54.45517 | 11.18595 | 31914 ft | 433 kts | 215° |
| 2026-05-08 09:05 | 54.43062 | 11.15621 | 32372 ft | 430 kts | 215° |
| 2026-05-08 09:05 | 54.40610 | 11.12655 | 32630 ft | 432 kts | 215° |
| 2026-05-08 09:05 | 54.38179 | 11.09718 | 32902 ft | 433 kts | 215° |
| 2026-05-08 09:06 | 54.35723 | 11.06753 | 33300 ft | 430 kts | 215° |
| 2026-05-08 09:06 | 54.33276 | 11.03802 | 33620 ft | 430 kts | 215° |
| 2026-05-08 09:06 | 54.30747 | 11.01049 | 33826 ft | 431 kts | 208° |
| 2026-05-08 09:06 | 54.28064 | 10.98789 | 34156 ft | 430 kts | 205° |
| 2026-05-08 09:07 | 54.25343 | 10.96692 | 34476 ft | 428 kts | 204° |
| 2026-05-08 09:07 | 54.22603 | 10.94674 | 34662 ft | 429 kts | 204° |
| 2026-05-08 09:07 | 54.19848 | 10.92694 | 34869 ft | 429 kts | 203° |
| 2026-05-08 09:07 | 54.17091 | 10.90731 | 35098 ft | 429 kts | 204° |
| 2026-05-08 09:08 | 54.14329 | 10.88766 | 35295 ft | 429 kts | 204° |
| 2026-05-08 09:08 | 54.11578 | 10.86805 | 35466 ft | 430 kts | 204° |
| 2026-05-08 09:08 | 54.08817 | 10.84832 | 35667 ft | 430 kts | 204° |
| 2026-05-08 09:08 | 54.06187 | 10.82951 | 35873 ft | 429 kts | 204° |
| 2026-05-08 09:09 | 54.03426 | 10.80975 | 36041 ft | 430 kts | 204° |
| 2026-05-08 09:09 | 54.00667 | 10.79002 | 36191 ft | 430 kts | 204° |
| 2026-05-08 09:09 | 53.97907 | 10.77030 | 36391 ft | 430 kts | 204° |
| 2026-05-08 09:09 | 53.95182 | 10.75086 | 36561 ft | 430 kts | 204° |
| 2026-05-08 09:10 | 53.92420 | 10.73118 | 36731 ft | 430 kts | 204° |
| 2026-05-08 09:10 | 53.89661 | 10.71155 | 36888 ft | 430 kts | 204° |
| 2026-05-08 09:10 | 53.86906 | 10.69199 | 37054 ft | 430 kts | 204° |
| 2026-05-08 09:10 | 53.84142 | 10.67239 | 37215 ft | 430 kts | 204° |
| 2026-05-08 09:11 | 53.81379 | 10.65283 | 37366 ft | 430 kts | 204° |
| 2026-05-08 09:11 | 53.78616 | 10.63329 | 37521 ft | 430 kts | 204° |
| 2026-05-08 09:11 | 53.75845 | 10.61373 | 37648 ft | 430 kts | 204° |
| 2026-05-08 09:11 | 53.73086 | 10.59427 | 37769 ft | 431 kts | 204° |
| 2026-05-08 09:12 | 53.70317 | 10.57478 | 37902 ft | 431 kts | 204° |
| 2026-05-08 09:12 | 53.67553 | 10.55534 | 38035 ft | 431 kts | 204° |
| 2026-05-08 09:12 | 53.64777 | 10.53585 | 38166 ft | 431 kts | 204° |
| 2026-05-08 09:12 | 53.62010 | 10.51645 | 38219 ft | 432 kts | 204° |
| 2026-05-08 09:13 | 53.56449 | 10.47756 | 38214 ft | 432 kts | 204° |
| 2026-05-08 09:13 | 53.50937 | 10.43911 | 38204 ft | 431 kts | 204° |
| 2026-05-08 09:14 | 53.45389 | 10.40052 | 38199 ft | 431 kts | 204° |
| 2026-05-08 09:14 | 53.39850 | 10.36210 | 38198 ft | 431 kts | 204° |
| 2026-05-08 09:15 | 53.34300 | 10.32371 | 38194 ft | 431 kts | 204° |
| 2026-05-08 09:15 | 53.28749 | 10.28543 | 38189 ft | 431 kts | 204° |
| 2026-05-08 09:16 | 53.23201 | 10.24728 | 38194 ft | 431 kts | 204° |
| 2026-05-08 09:16 | 53.17659 | 10.20927 | 38190 ft | 430 kts | 204° |
| 2026-05-08 09:17 | 53.12123 | 10.17142 | 38191 ft | 430 kts | 204° |
| 2026-05-08 09:17 | 53.06581 | 10.13361 | 38182 ft | 430 kts | 204° |
| 2026-05-08 09:18 | 53.01037 | 10.09591 | 38186 ft | 430 kts | 204° |
| 2026-05-08 09:18 | 52.95493 | 10.05831 | 38187 ft | 430 kts | 204° |
| 2026-05-08 09:19 | 52.89956 | 10.02086 | 38185 ft | 430 kts | 204° |
| 2026-05-08 09:19 | 52.84409 | 9.98345 | 38183 ft | 430 kts | 204° |
| 2026-05-08 09:20 | 52.78863 | 9.94615 | 38186 ft | 430 kts | 204° |
| 2026-05-08 09:20 | 52.73351 | 9.90918 | 38184 ft | 429 kts | 204° |
| 2026-05-08 09:21 | 52.67781 | 9.87192 | 38182 ft | 429 kts | 204° |
| 2026-05-08 09:23 | 52.48431 | 9.74328 | 38181 ft | 429 kts | 204° |
| 2026-05-08 09:23 | 52.42892 | 9.70668 | 38185 ft | 429 kts | 204° |
| 2026-05-08 09:24 | 52.37357 | 9.67021 | 38186 ft | 429 kts | 204° |
| 2026-05-08 09:24 | 52.31819 | 9.63381 | 38182 ft | 428 kts | 204° |
| 2026-05-08 09:25 | 52.26292 | 9.59760 | 38179 ft | 428 kts | 204° |
| 2026-05-08 09:25 | 52.20758 | 9.56142 | 38174 ft | 428 kts | 204° |
| 2026-05-08 09:26 | 52.15222 | 9.52533 | 38170 ft | 428 kts | 204° |
| 2026-05-08 09:26 | 52.09690 | 9.48937 | 38168 ft | 428 kts | 204° |
| 2026-05-08 09:27 | 52.04157 | 9.45350 | 38166 ft | 428 kts | 204° |
| 2026-05-08 09:27 | 51.98749 | 9.41859 | 39109 ft | 393 kts | 204° |
| 2026-05-08 09:27 | 51.96303 | 9.40291 | 39909 ft | 366 kts | 204° |
| 2026-05-08 09:28 | 51.93959 | 9.38788 | 39910 ft | 363 kts | 204° |
| 2026-05-08 09:28 | 51.91555 | 9.37236 | 39077 ft | 384 kts | 204° |
| 2026-05-08 09:28 | 51.88980 | 9.35551 | 37945 ft | 409 kts | 204° |
| 2026-05-08 09:28 | 51.86332 | 9.33800 | 37723 ft | 409 kts | 204° |